createdAt,value
2023-12-18T00:02:12.885Z,3.08
2023-12-18T00:04:39.214Z,2.90
2023-12-18T00:07:05.682Z,2.80
2023-12-18T00:09:32.054Z,2.45
2023-12-18T00:11:58.425Z,2.67
2023-12-18T00:14:24.760Z,2.72
2023-12-18T00:16:51.223Z,2.93
2023-12-18T00:19:17.702Z,2.50
2023-12-18T00:21:44.134Z,2.92
2023-12-18T00:24:10.486Z,2.85
2023-12-18T00:26:36.841Z,2.80
2023-12-18T00:29:03.330Z,2.43
2023-12-18T00:31:29.860Z,2.67
2023-12-18T00:33:56.458Z,3.00
2023-12-18T00:36:22.891Z,3.25
2023-12-18T00:38:49.247Z,4.18
2023-12-18T00:41:15.583Z,3.97
2023-12-18T00:43:41.949Z,3.30
2023-12-18T00:46:08.308Z,3.42
2023-12-18T00:48:34.789Z,3.60
2023-12-18T00:51:01.145Z,3.60
2023-12-18T00:53:27.649Z,3.73
2023-12-18T00:55:54.011Z,3.70
2023-12-18T00:58:20.337Z,4.00
2023-12-18T01:00:46.764Z,3.60
2023-12-18T01:03:13.279Z,3.50
2023-12-18T01:05:39.681Z,3.87
2023-12-18T01:08:06.279Z,3.65
2023-12-18T01:10:32.594Z,3.72
2023-12-18T01:12:58.925Z,3.33
2023-12-18T01:15:25.634Z,3.55
2023-12-18T01:17:52.061Z,3.20
2023-12-18T01:20:18.586Z,3.30
2023-12-18T01:22:46.923Z,3.65
2023-12-18T01:25:16.031Z,3.00
2023-12-18T01:27:43.063Z,3.35
2023-12-18T01:30:10.364Z,2.90
2023-12-18T01:32:36.730Z,4.43
2023-12-18T01:35:03.376Z,3.45
2023-12-18T01:37:29.777Z,3.10
2023-12-18T01:39:56.108Z,4.38
2023-12-18T01:42:22.522Z,3.70
2023-12-18T01:44:49.600Z,3.55
2023-12-18T01:47:17.344Z,4.80
2023-12-18T01:49:44.344Z,3.72
2023-12-18T01:52:11.017Z,3.40
2023-12-18T01:54:37.579Z,3.37
2023-12-18T01:57:05.671Z,2.95
2023-12-18T01:59:33.411Z,4.40
2023-12-18T02:02:00.025Z,3.47
2023-12-18T02:04:27.391Z,3.20
2023-12-18T02:06:53.987Z,3.10
2023-12-18T02:09:20.331Z,3.35
2023-12-18T02:11:46.927Z,2.75
2023-12-18T02:14:13.525Z,2.88
2023-12-18T02:16:39.949Z,2.85
2023-12-18T02:19:06.635Z,2.73
2023-12-18T02:21:33.022Z,2.83
2023-12-18T02:23:59.378Z,3.15
2023-12-18T02:26:26.016Z,2.83
2023-12-18T02:28:52.366Z,3.35
2023-12-18T02:31:19.644Z,3.17
2023-12-18T02:33:50.003Z,3.30
2023-12-18T02:36:17.613Z,3.83
2023-12-18T02:38:43.994Z,3.53
2023-12-18T02:41:10.545Z,3.28
2023-12-18T02:43:36.874Z,3.37
2023-12-18T02:46:03.774Z,3.38
2023-12-18T02:48:30.285Z,3.28
2023-12-18T02:50:56.726Z,2.95
2023-12-18T02:53:23.063Z,2.90
2023-12-18T02:55:49.544Z,2.90
2023-12-18T02:58:15.892Z,3.00
2023-12-18T03:00:42.262Z,2.80
2023-12-18T03:03:08.749Z,2.80
2023-12-18T03:05:35.219Z,3.10
2023-12-18T03:08:01.563Z,2.90
2023-12-18T03:10:27.925Z,3.05
2023-12-18T03:12:54.319Z,2.75
2023-12-18T03:15:20.676Z,2.88
2023-12-18T03:17:47.439Z,2.55
2023-12-18T03:20:14.080Z,2.90
2023-12-18T03:22:40.448Z,2.50
2023-12-18T03:25:07.174Z,2.85
2023-12-18T03:27:33.599Z,2.78
2023-12-18T03:30:00.000Z,3.05
2023-12-18T03:32:26.677Z,2.83
2023-12-18T03:34:53.023Z,3.33
2023-12-18T03:37:19.511Z,3.33
2023-12-18T03:39:45.855Z,3.03
2023-12-18T03:42:12.998Z,3.53
2023-12-18T03:44:39.401Z,2.87
2023-12-18T03:47:05.822Z,3.50
2023-12-18T03:49:32.209Z,3.47
2023-12-18T03:51:58.580Z,3.50
2023-12-18T03:54:25.014Z,3.05
2023-12-18T03:56:51.344Z,2.93
2023-12-18T03:59:17.675Z,2.83
2023-12-18T04:01:44.099Z,2.58
2023-12-18T04:04:11.794Z,2.65
2023-12-18T04:06:38.259Z,2.33
2023-12-18T04:09:05.002Z,2.33
2023-12-18T04:11:31.447Z,2.10
2023-12-18T04:13:57.768Z,2.40
2023-12-18T04:16:24.109Z,3.00
2023-12-18T04:18:51.437Z,2.40
2023-12-18T04:21:17.956Z,2.20
2023-12-18T04:23:44.331Z,2.50
2023-12-18T04:26:10.655Z,2.20
2023-12-18T04:28:37.015Z,2.95
2023-12-18T04:31:03.528Z,2.45
2023-12-18T04:33:29.980Z,2.17
2023-12-18T04:35:56.357Z,2.42
2023-12-18T04:38:22.703Z,2.75
2023-12-18T04:40:49.168Z,3.17
2023-12-18T04:43:15.520Z,2.80
2023-12-18T04:45:41.968Z,3.40
2023-12-18T04:48:08.483Z,2.88
2023-12-18T04:50:34.945Z,5.05
2023-12-18T04:53:01.324Z,6.03
2023-12-18T04:55:27.668Z,4.40
2023-12-18T04:57:53.994Z,3.40
2023-12-18T05:00:20.417Z,3.47
2023-12-18T05:02:48.023Z,2.85
2023-12-18T05:05:14.398Z,3.00
2023-12-18T05:07:40.778Z,3.38
2023-12-18T05:10:07.644Z,3.13
2023-12-18T05:12:34.036Z,2.92
2023-12-18T05:15:03.486Z,2.90
2023-12-18T05:17:30.916Z,2.90
2023-12-18T05:19:57.293Z,2.70
2023-12-18T05:22:24.013Z,2.93
2023-12-18T05:24:50.400Z,3.00
2023-12-18T05:27:18.715Z,2.70
2023-12-18T05:29:45.099Z,2.80
2023-12-18T05:32:11.420Z,2.67
2023-12-18T05:34:37.901Z,2.53
2023-12-18T05:37:07.290Z,2.65
2023-12-18T05:39:33.685Z,3.10
2023-12-18T05:42:00.124Z,3.13
2023-12-18T05:44:26.473Z,2.85
2023-12-18T05:46:52.856Z,3.03
2023-12-18T05:49:19.235Z,2.88
2023-12-18T05:51:45.632Z,3.22
2023-12-18T05:54:12.045Z,2.97
2023-12-18T05:56:38.428Z,2.63
2023-12-18T05:59:04.820Z,3.47
2023-12-18T06:01:31.241Z,2.60
2023-12-18T06:03:57.851Z,3.03
2023-12-18T06:06:24.372Z,3.10
2023-12-18T06:08:50.746Z,2.30
2023-12-18T06:11:17.150Z,3.00
2023-12-18T06:13:43.753Z,2.30
2023-12-18T06:16:10.079Z,2.88
2023-12-18T06:18:36.563Z,3.53
2023-12-18T06:21:04.803Z,3.50
2023-12-18T06:23:32.098Z,3.67
2023-12-18T06:26:00.062Z,4.40
2023-12-18T06:28:28.472Z,4.57
2023-12-18T06:30:55.578Z,3.85
2023-12-18T06:33:22.078Z,3.53
2023-12-18T06:35:48.712Z,3.90
2023-12-18T06:38:15.091Z,3.58
2023-12-18T06:40:41.440Z,3.60
2023-12-18T06:43:07.813Z,3.80
2023-12-18T06:45:34.186Z,3.78
2023-12-18T06:48:00.658Z,2.87
2023-12-18T06:50:27.109Z,2.88
2023-12-18T06:52:54.152Z,2.97
2023-12-18T06:55:20.595Z,2.75
2023-12-18T06:57:46.939Z,3.03
2023-12-18T07:00:14.012Z,2.70
2023-12-18T07:02:40.591Z,2.95
2023-12-18T07:05:07.460Z,3.60
2023-12-18T07:07:33.934Z,3.38
2023-12-18T07:10:00.387Z,3.60
2023-12-18T07:12:26.855Z,3.17
2023-12-18T07:14:53.250Z,4.97
2023-12-18T07:17:19.596Z,2.60
2023-12-18T07:19:45.932Z,3.75
2023-12-18T07:22:12.290Z,3.58
2023-12-18T07:24:38.648Z,3.40
2023-12-18T07:27:05.307Z,3.22
2023-12-18T07:29:31.863Z,4.25
2023-12-18T07:31:58.238Z,2.97
2023-12-18T07:34:24.748Z,3.08
2023-12-18T07:36:51.274Z,3.17
2023-12-18T07:39:17.751Z,3.28
2023-12-18T07:41:44.161Z,2.90
2023-12-18T07:44:10.644Z,4.38
2023-12-18T07:46:36.990Z,3.60
2023-12-18T07:49:03.982Z,3.90
2023-12-18T07:51:30.586Z,3.33
2023-12-18T07:53:56.966Z,4.07
2023-12-18T07:56:23.341Z,3.97
2023-12-18T07:58:49.681Z,4.28
2023-12-18T08:01:20.786Z,3.73
2023-12-18T08:03:47.791Z,4.13
2023-12-18T08:06:14.222Z,3.28
2023-12-18T08:08:40.753Z,3.10
2023-12-18T08:11:07.131Z,3.55
2023-12-18T08:13:39.101Z,3.53
2023-12-18T08:16:07.237Z,3.63
2023-12-18T08:18:33.761Z,3.53
2023-12-18T08:21:00.410Z,3.50
2023-12-18T08:23:27.642Z,3.35
2023-12-18T08:25:54.201Z,3.33
2023-12-18T08:28:20.560Z,3.55
2023-12-18T08:30:47.030Z,3.40
2023-12-18T08:33:13.599Z,4.22
2023-12-18T08:35:40.106Z,3.80
2023-12-18T08:38:06.461Z,3.17
2023-12-18T08:40:33.080Z,3.75
2023-12-18T08:42:59.549Z,3.85
2023-12-18T08:45:26.048Z,3.88
2023-12-18T08:47:52.513Z,6.60
2023-12-18T08:50:18.938Z,5.10
2023-12-18T08:52:45.269Z,4.82
2023-12-18T08:55:11.929Z,4.13
2023-12-18T08:57:38.297Z,4.75
2023-12-18T09:00:07.409Z,3.28
2023-12-18T09:02:33.888Z,3.77
2023-12-18T09:05:00.482Z,3.60
2023-12-18T09:07:26.868Z,3.63
2023-12-18T09:09:53.242Z,3.90
2023-12-18T09:12:19.799Z,3.90
2023-12-18T09:14:46.140Z,4.03
2023-12-18T09:17:12.482Z,3.75
2023-12-18T09:19:38.936Z,3.78
2023-12-18T09:22:06.295Z,3.95
2023-12-18T09:24:32.962Z,4.15
2023-12-18T09:26:59.365Z,4.00
2023-12-18T09:29:25.719Z,3.72
2023-12-18T09:31:52.188Z,3.00
2023-12-18T09:34:18.738Z,3.72
2023-12-18T09:36:45.584Z,3.42
2023-12-18T09:39:12.001Z,3.27
2023-12-18T09:41:38.357Z,3.88
2023-12-18T09:44:04.880Z,3.40
2023-12-18T09:46:31.313Z,3.60
2023-12-18T09:48:58.511Z,3.38
2023-12-18T09:51:26.704Z,3.67
2023-12-18T09:53:54.149Z,3.60
2023-12-18T09:56:21.629Z,3.70
2023-12-18T09:58:48.395Z,3.70
2023-12-18T10:01:15.332Z,3.80
2023-12-18T10:03:42.790Z,3.80
2023-12-18T10:06:10.057Z,4.10
2023-12-18T10:08:36.569Z,3.80
2023-12-18T10:11:04.332Z,3.05
2023-12-18T10:13:30.686Z,4.53
2023-12-18T10:15:58.064Z,4.07
2023-12-18T10:18:25.471Z,3.17
2023-12-18T10:20:52.612Z,4.32
2023-12-18T10:23:18.960Z,3.88
2023-12-18T10:25:45.399Z,3.60
2023-12-18T10:28:13.760Z,3.80
2023-12-18T10:30:40.371Z,4.05
2023-12-18T10:33:11.058Z,5.43
2023-12-18T10:35:37.961Z,4.28
2023-12-18T10:38:06.147Z,4.88
2023-12-18T10:40:32.549Z,4.00
2023-12-18T10:43:28.379Z,3.38
2023-12-18T10:45:57.904Z,3.38
2023-12-18T10:48:26.130Z,3.70
2023-12-18T10:50:56.128Z,5.05
2023-12-18T10:53:24.422Z,4.97
2023-12-18T10:55:51.758Z,4.00
2023-12-18T10:58:19.106Z,3.83
2023-12-18T11:00:45.924Z,3.63
2023-12-18T11:03:14.284Z,3.35
2023-12-18T11:05:42.670Z,3.97
2023-12-18T11:08:11.205Z,3.75
2023-12-18T11:10:38.086Z,4.22
2023-12-18T11:13:10.417Z,3.30
2023-12-18T11:16:02.089Z,3.85
2023-12-18T11:19:19.680Z,4.40
2023-12-18T11:21:53.983Z,3.65
2023-12-18T11:24:20.517Z,4.88
2023-12-18T11:26:47.777Z,3.38
2023-12-18T11:29:38.949Z,4.88
2023-12-18T11:32:05.753Z,4.90
2023-12-18T11:34:32.321Z,5.25
2023-12-18T11:36:59.998Z,5.43
2023-12-18T11:39:42.786Z,6.68
2023-12-18T11:42:11.581Z,5.35
2023-12-18T11:44:38.138Z,5.67
2023-12-18T11:47:04.734Z,5.55
2023-12-18T11:49:31.487Z,5.80
2023-12-18T11:51:59.785Z,4.63
2023-12-18T11:54:26.901Z,4.90
2023-12-18T11:56:56.293Z,5.10
2023-12-18T11:59:24.391Z,4.95
2023-12-18T12:01:52.324Z,5.88
2023-12-18T12:04:20.869Z,5.28
2023-12-18T12:06:48.226Z,5.22
2023-12-18T12:09:14.571Z,5.03
2023-12-18T12:11:40.950Z,6.55
2023-12-18T12:14:07.369Z,7.72
2023-12-18T12:16:34.183Z,5.75
2023-12-18T12:19:01.513Z,6.05
2023-12-18T12:21:35.009Z,5.33
2023-12-18T12:24:08.703Z,5.97
2023-12-18T12:26:35.269Z,7.53
2023-12-18T12:29:01.636Z,6.38
2023-12-18T12:31:29.096Z,6.25
2023-12-18T12:33:56.652Z,5.93
2023-12-18T12:36:23.913Z,7.53
2023-12-18T12:38:50.380Z,5.13
2023-12-18T12:41:17.015Z,5.97
2023-12-18T12:43:44.587Z,6.85
2023-12-18T12:46:15.500Z,8.30
2023-12-18T12:48:46.434Z,6.68
2023-12-18T12:51:14.320Z,4.78
2023-12-18T12:53:42.797Z,4.95
2023-12-18T12:56:10.406Z,6.97
2023-12-18T12:58:37.167Z,5.23
2023-12-18T13:01:03.856Z,6.25
2023-12-18T13:03:30.996Z,6.28
2023-12-18T13:05:57.970Z,6.80
2023-12-18T13:08:24.317Z,6.57
2023-12-18T13:10:50.762Z,6.33
2023-12-18T13:13:18.399Z,6.18
2023-12-18T13:15:45.085Z,7.35
2023-12-18T13:18:12.222Z,6.90
2023-12-18T13:20:38.798Z,6.07
2023-12-18T13:23:05.206Z,5.20
2023-12-18T13:25:31.554Z,8.68
2023-12-18T13:27:57.993Z,8.75
2023-12-18T13:30:24.531Z,7.63
2023-12-18T13:32:51.078Z,7.43
2023-12-18T13:35:17.582Z,5.73
2023-12-18T13:37:44.306Z,6.07
2023-12-18T13:40:11.525Z,7.00
2023-12-18T13:42:38.015Z,8.20
2023-12-18T13:45:04.828Z,8.68
2023-12-18T13:47:31.793Z,5.97
2023-12-18T13:49:58.286Z,8.73
2023-12-18T13:52:26.223Z,7.15
2023-12-18T13:54:52.901Z,8.32
2023-12-18T13:57:19.708Z,8.65
2023-12-18T13:59:46.132Z,7.87
2023-12-18T14:02:12.470Z,7.72
2023-12-18T14:04:38.829Z,9.02
2023-12-18T14:07:05.393Z,8.02
2023-12-18T14:09:31.837Z,8.30
2023-12-18T14:11:58.388Z,8.20
2023-12-18T14:14:24.798Z,10.90
2023-12-18T14:16:51.152Z,9.18
2023-12-18T14:19:17.581Z,8.38
2023-12-18T14:21:44.118Z,7.97
2023-12-18T14:24:10.628Z,8.80
2023-12-18T14:26:37.106Z,8.27
2023-12-18T14:29:03.486Z,8.82
2023-12-18T14:31:29.979Z,9.48
2023-12-18T14:33:56.571Z,8.10
2023-12-18T14:36:22.978Z,7.03
2023-12-18T14:38:52.868Z,7.55
2023-12-18T14:41:20.662Z,7.60
2023-12-18T14:43:47.236Z,7.65
2023-12-18T14:46:15.227Z,8.88
2023-12-18T14:48:42.954Z,7.37
2023-12-18T14:51:09.335Z,7.13
2023-12-18T14:53:35.671Z,10.48
2023-12-18T14:56:02.333Z,8.48
2023-12-18T14:58:28.678Z,8.88
2023-12-18T15:00:55.393Z,8.23
2023-12-18T15:03:21.917Z,8.35
2023-12-18T15:05:51.301Z,7.25
2023-12-18T15:08:18.096Z,7.05
2023-12-18T15:10:45.160Z,7.13
2023-12-18T15:13:13.311Z,6.53
2023-12-18T15:15:40.061Z,6.85
2023-12-18T15:18:07.089Z,7.20
2023-12-18T15:20:33.662Z,6.35
2023-12-18T15:23:00.005Z,6.07
2023-12-18T15:25:26.381Z,5.60
2023-12-18T15:27:52.785Z,5.60
2023-12-18T15:30:19.369Z,6.95
2023-12-18T15:32:47.804Z,6.32
2023-12-18T15:35:14.338Z,6.13
2023-12-18T15:37:40.776Z,7.03
2023-12-18T15:40:08.189Z,6.28
2023-12-18T15:42:34.650Z,6.22
2023-12-18T15:45:01.188Z,5.97
2023-12-18T15:47:28.379Z,6.60
2023-12-18T15:49:55.193Z,7.57
2023-12-18T15:52:22.908Z,7.90
2023-12-18T15:54:49.285Z,7.38
2023-12-18T15:57:15.702Z,8.10
2023-12-18T15:59:42.369Z,8.52
2023-12-18T16:02:08.693Z,7.60
2023-12-18T16:04:35.028Z,9.05
2023-12-18T16:07:01.537Z,9.68
2023-12-18T16:09:27.925Z,8.68
2023-12-18T16:11:54.276Z,7.50
2023-12-18T16:14:21.033Z,7.20
2023-12-18T16:16:47.943Z,6.20
2023-12-18T16:19:16.215Z,7.50
2023-12-18T16:21:42.754Z,7.88
2023-12-18T16:24:09.784Z,9.55
2023-12-18T16:26:37.022Z,8.30
2023-12-18T16:29:08.309Z,8.57
2023-12-18T16:31:35.094Z,7.90
2023-12-18T16:34:01.769Z,9.00
2023-12-18T16:36:28.711Z,9.52
2023-12-18T16:38:55.357Z,9.23
2023-12-18T16:41:22.900Z,8.70
2023-12-18T16:43:49.850Z,8.45
2023-12-18T16:46:16.202Z,8.63
2023-12-18T16:48:43.026Z,7.72
2023-12-18T16:51:09.423Z,8.57
2023-12-18T16:53:35.764Z,9.65
2023-12-18T16:56:02.132Z,9.07
2023-12-18T16:58:29.010Z,10.57
2023-12-18T17:00:55.477Z,11.15
2023-12-18T17:03:22.813Z,10.20
2023-12-18T17:05:52.287Z,11.57
2023-12-18T17:08:18.779Z,14.15
2023-12-18T17:10:45.829Z,13.82
2023-12-18T17:13:13.708Z,13.93
2023-12-18T17:15:43.827Z,12.37
2023-12-18T17:18:11.229Z,14.50
2023-12-18T17:20:38.384Z,17.23
2023-12-18T17:23:05.490Z,18.23
2023-12-18T17:25:31.865Z,20.05
2023-12-18T17:27:58.610Z,19.13
2023-12-18T17:30:26.132Z,17.38
2023-12-18T17:32:52.572Z,15.85
2023-12-18T17:35:18.971Z,18.73
2023-12-18T17:37:45.363Z,20.10
2023-12-18T17:40:12.120Z,20.60
2023-12-18T17:42:38.509Z,20.27
2023-12-18T17:45:05.865Z,17.80
2023-12-18T17:47:32.785Z,17.80
2023-12-18T17:49:59.931Z,17.27
2023-12-18T17:52:29.216Z,16.00
2023-12-18T17:54:55.713Z,17.10
2023-12-18T17:57:22.149Z,14.75
2023-12-18T17:59:48.722Z,12.23
2023-12-18T18:02:16.059Z,11.07
2023-12-18T18:04:45.330Z,9.67
2023-12-18T18:07:13.001Z,9.73
2023-12-18T18:09:39.601Z,10.40
2023-12-18T18:12:06.776Z,12.25
2023-12-18T18:14:33.256Z,13.63
2023-12-18T18:16:59.645Z,14.70
2023-12-18T18:19:26.050Z,15.20
2023-12-18T18:21:52.527Z,15.93
2023-12-18T18:24:18.992Z,14.10
2023-12-18T18:26:45.413Z,13.82
2023-12-18T18:29:17.113Z,12.33
2023-12-18T18:31:44.788Z,12.38
2023-12-18T18:34:11.479Z,12.70
2023-12-18T18:36:38.000Z,15.13
2023-12-18T18:39:06.073Z,16.00
2023-12-18T18:41:33.717Z,17.90
2023-12-18T18:44:00.168Z,16.63
2023-12-18T18:46:27.198Z,12.88
2023-12-18T18:48:53.650Z,11.40
2023-12-18T18:51:20.110Z,11.05
2023-12-18T18:53:46.469Z,10.07
2023-12-18T18:56:12.859Z,11.57
2023-12-18T18:58:39.219Z,11.43
2023-12-18T19:01:05.752Z,10.00
2023-12-18T19:03:32.293Z,9.30
2023-12-18T19:05:58.749Z,9.10
2023-12-18T19:08:26.450Z,9.65
2023-12-18T19:10:52.811Z,9.07
2023-12-18T19:13:19.969Z,9.85
2023-12-18T19:15:47.949Z,9.23
2023-12-18T19:18:14.695Z,10.20
2023-12-18T19:20:41.235Z,9.32
2023-12-18T19:23:07.578Z,8.95
2023-12-18T19:25:33.937Z,10.32
2023-12-18T19:28:00.358Z,10.25
2023-12-18T19:30:26.804Z,9.27
2023-12-18T19:32:53.304Z,9.00
2023-12-18T19:35:19.662Z,9.55
2023-12-18T19:37:46.027Z,10.02
2023-12-18T19:40:14.131Z,10.70
2023-12-18T19:42:40.718Z,11.23
2023-12-18T19:45:07.873Z,13.38
2023-12-18T19:47:34.247Z,14.07
2023-12-18T19:50:01.550Z,10.88
2023-12-18T19:52:28.040Z,10.55
2023-12-18T19:54:54.452Z,10.27
2023-12-18T19:57:20.862Z,12.63
2023-12-18T19:59:47.790Z,12.68
2023-12-18T20:02:14.132Z,14.77
2023-12-18T20:04:40.513Z,12.40
2023-12-18T20:07:06.954Z,12.37
2023-12-18T20:09:33.375Z,14.88
2023-12-18T20:11:59.791Z,14.80
2023-12-18T20:14:26.512Z,16.23
2023-12-18T20:16:52.906Z,16.27
2023-12-18T20:19:19.427Z,15.67
2023-12-18T20:21:45.890Z,13.10
2023-12-18T20:24:12.287Z,9.70
2023-12-18T20:26:38.663Z,9.43
2023-12-18T20:29:05.020Z,9.40
2023-12-18T20:31:31.426Z,8.30
2023-12-18T20:33:57.873Z,7.53
2023-12-18T20:36:24.356Z,9.38
2023-12-18T20:38:50.700Z,12.82
2023-12-18T20:41:17.695Z,12.00
2023-12-18T20:43:44.077Z,10.80
2023-12-18T20:46:10.441Z,11.43
2023-12-18T20:48:36.786Z,9.43
2023-12-18T20:51:03.292Z,8.95
2023-12-18T20:53:29.638Z,10.30
2023-12-18T20:55:55.970Z,9.50
2023-12-18T20:58:22.825Z,8.48
2023-12-18T21:00:49.254Z,8.70
2023-12-18T21:03:15.713Z,9.05
2023-12-18T21:05:42.467Z,8.43
2023-12-18T21:08:08.961Z,9.70
2023-12-18T21:10:35.476Z,10.82
2023-12-18T21:13:03.688Z,10.43
2023-12-18T21:15:30.178Z,10.60
2023-12-18T21:17:58.870Z,9.15
2023-12-18T21:20:25.352Z,8.13
2023-12-18T21:22:51.974Z,8.80
2023-12-18T21:25:18.822Z,9.20
2023-12-18T21:27:45.428Z,8.45
2023-12-18T21:30:13.482Z,7.88
2023-12-18T21:32:40.071Z,7.73
2023-12-18T21:35:07.295Z,7.38
2023-12-18T21:37:33.830Z,8.70
2023-12-18T21:40:00.291Z,8.18
2023-12-18T21:42:26.749Z,9.70
2023-12-18T21:44:53.182Z,9.40
2023-12-18T21:47:21.453Z,9.98
2023-12-18T21:49:47.831Z,9.20
2023-12-18T21:52:15.660Z,8.85
2023-12-18T21:54:42.072Z,10.32
2023-12-18T21:57:11.140Z,10.13
2023-12-18T21:59:37.484Z,9.40
2023-12-18T22:02:04.001Z,8.73
2023-12-18T22:04:31.855Z,8.52
2023-12-18T22:06:58.454Z,8.50
2023-12-18T22:09:25.104Z,8.17
2023-12-18T22:11:51.556Z,8.60
2023-12-18T22:14:17.926Z,9.20
2023-12-18T22:16:44.292Z,7.60
2023-12-18T22:19:11.449Z,7.95
2023-12-18T22:21:38.063Z,8.23
2023-12-18T22:24:04.822Z,8.63
2023-12-18T22:26:31.188Z,8.82
2023-12-18T22:28:57.561Z,7.85
2023-12-18T22:31:24.783Z,8.35
2023-12-18T22:33:51.498Z,8.87
2023-12-18T22:36:17.944Z,8.43
2023-12-18T22:38:45.912Z,8.45
2023-12-18T22:41:14.176Z,9.85
2023-12-18T22:43:40.534Z,9.77
2023-12-18T22:46:06.900Z,9.07
2023-12-18T22:48:33.364Z,10.25
2023-12-18T22:50:59.786Z,9.35
2023-12-18T22:53:26.736Z,8.90
2023-12-18T22:55:53.138Z,9.82
2023-12-18T22:58:19.557Z,9.50
2023-12-18T23:00:45.958Z,8.57
2023-12-18T23:03:12.973Z,9.23
2023-12-18T23:05:39.401Z,8.75
2023-12-18T23:08:05.902Z,8.70
2023-12-18T23:10:32.298Z,8.53
2023-12-18T23:12:59.852Z,8.60
2023-12-18T23:15:26.351Z,8.32
2023-12-18T23:17:53.006Z,8.00
2023-12-18T23:20:19.416Z,8.27
2023-12-18T23:22:46.741Z,9.40
2023-12-18T23:25:14.242Z,9.88
2023-12-18T23:27:40.618Z,9.10
2023-12-18T23:30:07.719Z,8.75
2023-12-18T23:32:34.224Z,8.88
2023-12-18T23:35:00.761Z,9.40
2023-12-18T23:37:27.144Z,8.75
2023-12-18T23:39:53.631Z,9.10
2023-12-18T23:42:20.236Z,9.43
2023-12-18T23:44:46.586Z,9.00
2023-12-18T23:47:13.136Z,8.80
2023-12-18T23:49:39.582Z,7.10
2023-12-18T23:52:06.193Z,6.72
2023-12-18T23:54:32.784Z,6.43
2023-12-18T23:56:59.639Z,7.05
2023-12-18T23:59:25.974Z,6.20
